Time;durP1;ratioP1;P1;durP2;ratioP2;P2;SDS_P1;SDS_P2;PMS_P1;PMS_P2;Temp;Humidity;BMP_temperature;BMP_pressure;BME280_temperature;BME280_humidity;BME280_pressure;Samples;Min_cycle;Max_cycle;Signal;HPM_P1;HPM_P2
2022/03/04 00:00:20;;;;;;;13.43;7.53;;;;;;;-3.85;70.98;97452.44;5056021;28;21733;-63
2022/03/04 00:02:46;;;;;;;18.40;8.55;;;;;;;-3.81;71.24;97458.22;5046880;28;20051;-63
2022/03/04 00:05:13;;;;;;;18.77;9.32;;;;;;;-4.18;72.13;97458.38;5047601;28;20428;-63
2022/03/04 00:07:40;;;;;;;14.95;8.85;;;;;;;-4.39;72.37;97456.06;5033052;28;20052;-65
2022/03/04 00:10:07;;;;;;;13.82;7.93;;;;;;;-4.52;72.88;97459.13;5039501;28;20041;-63
2022/03/04 00:12:33;;;;;;;20.25;9.15;;;;;;;-4.64;73.57;97461.16;5046274;28;20129;-63
2022/03/04 00:15:00;;;;;;;16.48;7.65;;;;;;;-4.62;74.19;97459.22;5047813;28;20045;-63
2022/03/04 00:17:26;;;;;;;16.15;8.15;;;;;;;-4.67;74.03;97466.78;5036726;28;20041;-63
2022/03/04 00:19:53;;;;;;;17.80;10.45;;;;;;;-4.50;73.17;97458.97;5042807;28;20508;-63
2022/03/04 00:22:20;;;;;;;16.67;8.10;;;;;;;-4.68;73.42;97465.13;5047611;28;20793;-62
2022/03/04 00:24:46;;;;;;;16.75;8.05;;;;;;;-4.56;73.60;97460.41;5048189;28;20041;-62
2022/03/04 00:27:13;;;;;;;15.25;9.45;;;;;;;-4.76;73.86;97459.75;5030857;28;20048;-62
2022/03/04 00:29:39;;;;;;;13.75;7.03;;;;;;;-4.90;74.19;97454.00;5041806;28;20041;-62
2022/03/04 00:32:08;;;;;;;19.38;8.52;;;;;;;-4.90;74.20;97463.75;5038339;28;20144;-62
2022/03/04 00:34:35;;;;;;;16.65;8.45;;;;;;;-4.87;74.41;97456.34;5035397;28;20049;-62
2022/03/04 00:37:02;;;;;;;18.58;9.15;;;;;;;-5.04;74.99;97463.31;5028503;28;20043;-62
2022/03/04 00:39:28;;;;;;;15.98;7.82;;;;;;;-4.97;74.48;97460.91;5028480;28;20063;-63
2022/03/04 00:41:55;;;;;;;14.35;8.00;;;;;;;-4.99;74.73;97457.56;5041189;28;20042;-63
2022/03/04 00:44:21;;;;;;;13.75;7.65;;;;;;;-5.00;74.19;97461.19;5044907;28;20040;-63
2022/03/04 00:46:48;;;;;;;11.35;6.53;;;;;;;-4.98;74.57;97465.34;5045894;28;20051;-63
2022/03/04 00:49:15;;;;;;;15.75;8.27;;;;;;;-4.99;74.37;97458.41;5042519;28;20045;-63
2022/03/04 00:51:41;;;;;;;16.88;8.55;;;;;;;-4.98;74.01;97462.69;5048619;28;20041;-63
2022/03/04 00:54:08;;;;;;;14.93;7.13;;;;;;;-5.00;74.05;97461.19;5044774;28;20047;-63
2022/03/04 00:56:36;;;;;;;18.85;8.73;;;;;;;-5.04;74.59;97457.19;5046280;28;20037;-64
2022/03/04 00:59:04;;;;;;;15.30;8.73;;;;;;;-5.04;74.09;97455.38;5050024;28;20434;-63
2022/03/04 01:01:31;;;;;;;15.40;7.82;;;;;;;-5.14;74.53;97457.25;5057928;28;20515;-63
2022/03/04 01:03:58;;;;;;;16.52;8.30;;;;;;;-5.02;74.51;97458.69;5047227;28;20279;-63
2022/03/04 01:06:24;;;;;;;16.70;9.20;;;;;;;-5.06;74.20;97459.97;5045626;28;20041;-63
2022/03/04 01:08:51;;;;;;;17.30;9.52;;;;;;;-5.11;74.30;97460.44;5046567;28;20052;-63
2022/03/04 01:11:18;;;;;;;15.13;7.30;;;;;;;-4.95;74.30;97456.28;5046830;28;20056;-63
2022/03/04 01:13:45;;;;;;;15.20;8.32;;;;;;;-4.98;74.11;97461.84;5037214;28;20041;-63
2022/03/04 01:16:11;;;;;;;15.25;7.90;;;;;;;-4.88;74.55;97470.56;5042339;28;20041;-63
2022/03/04 01:18:38;;;;;;;17.77;7.82;;;;;;;-4.86;73.42;97459.84;5043460;28;20075;-63
2022/03/04 01:21:04;;;;;;;18.38;8.30;;;;;;;-4.81;73.09;97454.94;5038270;28;20052;-63
2022/03/04 01:23:31;;;;;;;16.85;8.52;;;;;;;-4.77;73.10;97461.56;5027169;28;20040;-63
2022/03/04 01:25:57;;;;;;;18.02;8.30;;;;;;;-4.76;73.26;97462.41;5027168;28;20042;-62
2022/03/04 01:28:24;;;;;;;19.15;9.68;;;;;;;-5.07;74.12;97454.84;5034408;28;20045;-63
2022/03/04 01:30:51;;;;;;;20.05;10.00;;;;;;;-5.31;74.62;97461.53;5040460;28;20147;-63
2022/03/04 01:33:18;;;;;;;19.33;8.95;;;;;;;-5.36;75.12;97457.53;5046581;28;20033;-63
2022/03/04 01:35:45;;;;;;;18.25;8.25;;;;;;;-5.50;75.57;97455.38;5046534;28;20041;-63
2022/03/04 01:38:12;;;;;;;21.38;9.48;;;;;;;-5.47;75.75;97447.19;5041157;28;20050;-63
2022/03/04 01:40:39;;;;;;;24.30;9.75;;;;;;;-5.47;75.72;97455.09;5026176;28;20041;-60
2022/03/04 01:43:05;;;;;;;13.50;7.25;;;;;;;-5.46;75.56;97442.75;5032303;28;20049;-63
2022/03/04 01:45:32;;;;;;;16.13;7.47;;;;;;;-5.43;75.20;97445.91;5034947;28;20475;-63
2022/03/04 01:47:59;;;;;;;17.70;7.70;;;;;;;-5.38;75.17;97441.00;5045516;28;20041;-62
2022/03/04 01:50:26;;;;;;;13.30;6.85;;;;;;;-5.28;74.76;97440.09;5046223;28;20702;-62
2022/03/04 01:52:53;;;;;;;18.08;8.73;;;;;;;-5.26;74.39;97440.81;5038590;28;20088;-62
2022/03/04 01:55:20;;;;;;;11.20;7.15;;;;;;;-5.35;74.59;97438.09;5045237;28;20109;-63
2022/03/04 01:57:47;;;;;;;17.25;8.40;;;;;;;-5.35;74.82;97445.16;5045996;28;20045;-63
2022/03/04 02:00:15;;;;;;;15.35;8.30;;;;;;;-5.35;74.50;97447.78;5059744;28;20117;-63
2022/03/04 02:02:42;;;;;;;14.35;7.82;;;;;;;-5.37;74.58;97445.34;5042370;28;20048;-63
2022/03/04 02:05:14;;;;;;;15.57;8.30;;;;;;;-5.45;74.94;97450.53;5026489;28;20041;-62
2022/03/04 02:07:41;;;;;;;14.35;8.63;;;;;;;-5.49;74.76;97444.69;5032542;28;20052;-63
2022/03/04 02:10:08;;;;;;;12.65;8.20;;;;;;;-5.45;75.08;97442.59;5046096;28;20067;-63
2022/03/04 02:12:36;;;;;;;20.05;9.38;;;;;;;-5.58;75.39;97442.94;5028683;28;20041;-63
2022/03/04 02:15:05;;;;;;;16.98;10.73;;;;;;;-5.61;75.08;97441.44;5025754;28;20046;-63
2022/03/04 02:17:31;;;;;;;14.93;7.65;;;;;;;-5.63;76.13;97438.09;5029396;28;20120;-64
2022/03/04 02:19:59;;;;;;;13.52;7.82;;;;;;;-5.71;76.17;97440.66;5046280;28;20044;-63
2022/03/04 02:22:25;;;;;;;11.52;6.78;;;;;;;-5.61;75.95;97436.16;5043703;28;20486;-63
2022/03/04 02:24:52;;;;;;;15.55;8.60;;;;;;;-5.63;75.95;97432.00;5046081;28;20041;-63
2022/03/04 02:27:19;;;;;;;12.68;6.93;;;;;;;-5.59;75.77;97436.00;5042662;28;20041;-63
2022/03/04 02:29:46;;;;;;;15.13;7.20;;;;;;;-5.51;74.97;97430.81;5033374;28;20103;-63
2022/03/04 02:32:12;;;;;;;13.65;7.78;;;;;;;-5.53;74.72;97435.41;5033403;28;20051;-64
2022/03/04 02:34:39;;;;;;;16.27;7.68;;;;;;;-5.38;74.22;97441.00;5031552;28;20049;-63
2022/03/04 02:37:07;;;;;;;15.50;8.27;;;;;;;-5.45;74.66;97431.19;5042532;28;20059;-62
2022/03/04 02:39:33;;;;;;;13.10;7.47;;;;;;;-5.52;75.38;97437.09;5044857;28;20045;-63
2022/03/04 02:42:00;;;;;;;15.88;7.88;;;;;;;-5.54;75.23;97433.75;5044650;28;20045;-62
2022/03/04 02:44:27;;;;;;;15.88;8.95;;;;;;;-5.62;75.22;97431.03;5029209;28;20555;-62
2022/03/04 02:46:53;;;;;;;15.85;7.72;;;;;;;-5.74;75.56;97443.59;5025200;28;20045;-63
2022/03/04 02:49:20;;;;;;;19.33;7.97;;;;;;;-5.81;75.74;97442.50;5025789;28;20046;-61
2022/03/04 02:51:46;;;;;;;15.30;6.93;;;;;;;-5.74;75.46;97441.75;5032920;28;20053;-62
2022/03/04 02:54:13;;;;;;;19.30;6.93;;;;;;;-5.68;75.15;97442.97;5042865;28;20492;-63
2022/03/04 02:56:40;;;;;;;15.45;8.57;;;;;;;-5.89;75.85;97441.41;5043598;28;20131;-62
2022/03/04 02:59:06;;;;;;;12.60;6.95;;;;;;;-6.07;76.30;97438.75;5039995;28;20503;-62
2022/03/04 03:01:33;;;;;;;14.90;7.47;;;;;;;-6.03;76.71;97439.28;5056698;28;20099;-62
2022/03/04 03:04:00;;;;;;;14.82;8.02;;;;;;;-5.95;76.11;97447.28;5045393;28;20049;-62
2022/03/04 03:06:28;;;;;;;19.48;7.60;;;;;;;-5.81;76.21;97434.59;5042709;28;20061;-61
2022/03/04 03:08:55;;;;;;;13.90;7.65;;;;;;;-5.76;75.56;97437.59;5033730;28;20049;-62
2022/03/04 03:11:22;;;;;;;13.30;7.60;;;;;;;-5.88;76.09;97442.25;5039885;28;20037;-63
2022/03/04 03:13:48;;;;;;;17.45;8.98;;;;;;;-5.91;76.32;97442.53;5046660;28;20068;-61
2022/03/04 03:16:15;;;;;;;14.02;8.13;;;;;;;-5.86;76.02;97442.94;5042781;28;20049;-62
2022/03/04 03:18:42;;;;;;;14.88;6.22;;;;;;;-5.87;75.90;97439.47;5040179;28;20037;-62
2022/03/04 03:21:08;;;;;;;15.18;8.13;;;;;;;-5.80;75.65;97445.00;5029991;28;20053;-63
2022/03/04 03:23:35;;;;;;;19.70;8.63;;;;;;;-5.93;76.06;97447.94;5047112;28;20047;-62
2022/03/04 03:26:02;;;;;;;19.30;9.98;;;;;;;-6.05;76.21;97443.91;5049759;28;20044;-63
2022/03/04 03:28:29;;;;;;;16.83;9.20;;;;;;;-6.22;77.05;97446.31;5043060;28;20076;-64
2022/03/04 03:30:56;;;;;;;19.35;9.32;;;;;;;-6.17;77.50;97444.06;5049552;28;20151;-62
2022/03/04 03:33:22;;;;;;;16.55;9.35;;;;;;;-6.29;77.99;97451.31;5034406;28;20045;-63
2022/03/04 03:35:54;;;;;;;22.17;9.82;;;;;;;-6.30;77.56;97448.81;5029795;28;20699;-63
2022/03/04 03:38:22;;;;;;;15.18;8.38;;;;;;;-6.30;77.75;97435.66;5042965;28;20095;-63
2022/03/04 03:40:49;;;;;;;15.65;9.05;;;;;;;-6.18;77.48;97441.56;5049629;28;20189;-63
2022/03/04 03:43:35;;;;;;;16.30;8.93;;;;;;;-6.03;76.89;97447.19;5048123;28;20049;-62
2022/03/04 03:46:02;;;;;;;15.68;8.18;;;;;;;-5.88;76.52;97448.38;5047064;28;20748;-63
2022/03/04 03:48:28;;;;;;;17.55;7.32;;;;;;;-5.95;76.47;97449.06;5044258;28;20055;-63
2022/03/04 03:50:56;;;;;;;18.23;9.60;;;;;;;-6.01;76.24;97445.22;5047245;28;20037;-63
2022/03/04 03:53:22;;;;;;;18.17;7.20;;;;;;;-6.18;76.92;97452.09;5047954;28;20041;-63
2022/03/04 03:55:49;;;;;;;14.00;7.30;;;;;;;-6.18;76.31;97447.69;5046877;28;20056;-63
2022/03/04 03:58:15;;;;;;;18.10;9.00;;;;;;;-6.19;76.46;97445.19;5047129;28;20067;-63
2022/03/04 04:00:42;;;;;;;17.27;7.57;;;;;;;-6.17;77.08;97454.59;5050347;28;20045;-61
2022/03/04 04:03:09;;;;;;;16.95;8.77;;;;;;;-6.19;77.23;97450.44;5038803;28;20045;-61
2022/03/04 04:05:35;;;;;;;13.02;7.50;;;;;;;-6.16;76.75;97456.25;5037296;28;20048;-63
2022/03/04 04:08:02;;;;;;;18.38;9.90;;;;;;;-6.11;76.57;97449.72;5036844;28;20049;-63
2022/03/04 04:10:28;;;;;;;15.55;8.55;;;;;;;-6.20;76.80;97460.16;5028783;28;20040;-63
2022/03/04 04:12:55;;;;;;;12.82;7.78;;;;;;;-6.19;76.66;97466.28;5028988;28;20829;-63
2022/03/04 04:15:22;;;;;;;14.90;8.68;;;;;;;-6.21;77.03;97463.78;5031164;28;20037;-63
2022/03/04 04:17:49;;;;;;;15.35;8.20;;;;;;;-6.34;77.24;97455.34;5037611;28;20099;-62
2022/03/04 04:20:15;;;;;;;20.40;8.80;;;;;;;-6.33;77.84;97465.75;5029985;28;20041;-62
2022/03/04 04:22:42;;;;;;;18.20;9.40;;;;;;;-6.25;77.27;97461.56;5034524;28;20435;-63
2022/03/04 04:25:09;;;;;;;15.18;8.20;;;;;;;-6.15;77.23;97462.38;5046935;28;20087;-62
2022/03/04 04:27:35;;;;;;;16.08;8.18;;;;;;;-6.15;77.28;97449.19;5048216;28;20049;-61
2022/03/04 04:30:02;;;;;;;15.82;9.10;;;;;;;-6.25;77.51;97457.13;5046547;28;20052;-63
2022/03/04 04:32:29;;;;;;;15.20;8.15;;;;;;;-6.18;77.09;97455.59;5033402;28;20053;-65
2022/03/04 04:34:56;;;;;;;17.83;9.43;;;;;;;-6.06;76.58;97463.31;5026093;28;20099;-64
2022/03/04 04:37:22;;;;;;;16.92;7.82;;;;;;;-6.08;76.44;97463.44;5027837;28;20063;-64
2022/03/04 04:39:49;;;;;;;16.90;8.57;;;;;;;-6.06;76.63;97460.66;5028756;28;20041;-63
2022/03/04 04:42:15;;;;;;;18.30;9.48;;;;;;;-5.95;76.39;97465.75;5047492;28;20064;-63
2022/03/04 04:44:42;;;;;;;15.75;7.20;;;;;;;-5.95;76.15;97463.09;5043824;28;20040;-63
2022/03/04 04:47:09;;;;;;;16.55;9.93;;;;;;;-6.06;76.13;97468.56;5041021;28;20106;-63
2022/03/04 04:49:37;;;;;;;16.92;8.13;;;;;;;-6.29;77.38;97476.81;5046855;28;20045;-63
2022/03/04 04:52:05;;;;;;;21.98;10.00;;;;;;;-6.61;77.85;97480.59;5043636;28;20087;-63
2022/03/04 04:54:33;;;;;;;15.75;9.15;;;;;;;-6.71;78.36;97478.81;5048653;28;20053;-63
2022/03/04 04:57:00;;;;;;;17.27;8.45;;;;;;;-6.77;79.17;97478.53;5047296;28;20405;-63
2022/03/04 04:59:26;;;;;;;19.70;8.63;;;;;;;-6.73;78.98;97486.03;5053226;28;20043;-63
2022/03/04 05:01:53;;;;;;;17.45;7.88;;;;;;;-6.71;79.17;97486.72;5050423;28;20045;-61
2022/03/04 05:04:19;;;;;;;12.95;6.97;;;;;;;-6.64;78.64;97488.81;5048004;28;20049;-62
2022/03/04 05:06:46;;;;;;;14.35;7.40;;;;;;;-6.33;77.98;97496.53;5030324;28;20630;-62
2022/03/04 05:09:12;;;;;;;10.75;6.70;;;;;;;-6.18;77.85;97502.19;5028119;28;20092;-61
2022/03/04 05:11:40;;;;;;;23.95;9.20;;;;;;;-6.06;76.88;97502.84;5040857;28;20045;-63
2022/03/04 05:14:06;;;;;;;15.60;8.70;;;;;;;-6.15;76.58;97504.53;5046460;28;20593;-61
2022/03/04 05:16:33;;;;;;;17.75;9.77;;;;;;;-6.09;76.53;97496.06;5046707;28;20045;-63
2022/03/04 05:18:59;;;;;;;10.68;6.57;;;;;;;-6.06;76.63;97492.31;5047476;28;20076;-62
2022/03/04 05:21:26;;;;;;;18.10;10.38;;;;;;;-6.06;77.02;97505.47;5052415;28;20052;-63
2022/03/04 05:24:02;;;;;;;13.85;8.40;;;;;;;-6.16;77.01;97498.44;5047688;28;20196;-63
2022/03/04 05:26:34;;;;;;;19.23;10.10;;;;;;;-6.21;77.17;97499.81;5033643;28;20049;-63
2022/03/04 05:29:04;;;;;;;15.55;7.47;;;;;;;-6.44;77.79;97505.41;5035255;28;20049;-63
2022/03/04 05:31:30;;;;;;;17.10;9.48;;;;;;;-6.43;78.05;97500.00;5044069;28;20056;-63
2022/03/04 05:33:57;;;;;;;14.10;7.53;;;;;;;-6.44;78.37;97506.25;5029435;28;20099;-62
2022/03/04 05:36:24;;;;;;;13.35;7.35;;;;;;;-6.34;77.64;97506.22;5026456;28;20098;-64
2022/03/04 05:38:51;;;;;;;20.05;9.43;;;;;;;-6.30;77.74;97517.34;5040863;28;20041;-63
2022/03/04 05:41:18;;;;;;;10.15;6.15;;;;;;;-6.28;77.96;97516.22;5030584;28;20104;-63
2022/03/04 05:43:47;;;;;;;12.65;7.05;;;;;;;-6.17;77.33;97514.38;5045660;28;20033;-61
2022/03/04 05:46:14;;;;;;;9.10;5.07;;;;;;;-6.07;77.05;97514.38;5046728;28;20040;-64
2022/03/04 05:48:41;;;;;;;13.00;7.43;;;;;;;-6.08;76.94;97520.63;5053615;28;20137;-65
2022/03/04 05:51:09;;;;;;;17.05;7.40;;;;;;;-6.03;76.40;97524.47;5054036;28;20535;-62
2022/03/04 05:53:36;;;;;;;9.63;5.95;;;;;;;-6.01;76.56;97526.97;5044052;28;20474;-63
2022/03/04 05:56:05;;;;;;;13.52;8.30;;;;;;;-6.03;76.64;97524.47;5044137;28;20055;-65
2022/03/04 05:58:31;;;;;;;15.30;9.18;;;;;;;-6.05;76.66;97533.53;5039809;28;20105;-65
2022/03/04 06:00:59;;;;;;;17.05;8.27;;;;;;;-6.18;77.04;97532.03;5044712;28;20128;-66
2022/03/04 06:03:26;;;;;;;25.08;9.20;;;;;;;-6.30;77.56;97527.88;5043883;28;20045;-64
2022/03/04 06:05:53;;;;;;;20.27;9.00;;;;;;;-6.30;77.83;97528.69;5038623;28;20046;-65
2022/03/04 06:08:20;;;;;;;16.60;9.60;;;;;;;-6.38;77.77;97525.13;5040139;28;20467;-65
2022/03/04 06:10:46;;;;;;;20.15;9.57;;;;;;;-6.37;77.79;97532.03;5039480;28;20512;-64
2022/03/04 06:13:13;;;;;;;16.70;7.65;;;;;;;-6.25;77.58;97527.44;5040834;28;20436;-64
2022/03/04 06:15:39;;;;;;;16.73;8.15;;;;;;;-6.30;77.86;97535.78;5038685;28;20527;-66
2022/03/04 06:18:06;;;;;;;15.55;9.38;;;;;;;-6.27;77.89;97531.06;5043045;28;20053;-64
2022/03/04 06:20:33;;;;;;;18.95;10.25;;;;;;;-6.18;77.17;97532.03;5041699;28;20045;-64
2022/03/04 06:22:59;;;;;;;14.70;8.82;;;;;;;-6.42;78.14;97535.09;5026457;28;20067;-65
2022/03/04 06:25:26;;;;;;;18.95;9.52;;;;;;;-6.58;78.57;97540.91;5025607;28;20045;-65
2022/03/04 06:27:53;;;;;;;21.02;11.23;;;;;;;-6.51;78.67;97539.41;5043724;28;20128;-64
2022/03/04 06:30:20;;;;;;;17.70;10.15;;;;;;;-6.51;78.38;97544.66;5037543;28;20670;-63
2022/03/04 06:32:48;;;;;;;16.55;9.75;;;;;;;-6.42;78.58;97543.84;5040323;28;20060;-64
2022/03/04 06:35:15;;;;;;;16.02;7.28;;;;;;;-6.37;78.06;97548.69;5037975;28;20528;-64
2022/03/04 06:37:42;;;;;;;16.65;9.13;;;;;;;-6.23;77.63;97543.97;5041344;28;20064;-64
2022/03/04 06:40:09;;;;;;;15.77;9.38;;;;;;;-6.27;78.17;97549.50;5039367;28;20045;-64
2022/03/04 06:42:36;;;;;;;21.63;9.63;;;;;;;-6.20;78.09;97549.78;5025057;28;20041;-66
2022/03/04 06:45:03;;;;;;;17.10;8.55;;;;;;;-6.04;77.56;97553.66;5025995;28;20044;-64
2022/03/04 06:47:29;;;;;;;24.48;10.15;;;;;;;-5.92;77.26;97559.53;5026026;28;20099;-64
2022/03/04 06:49:56;;;;;;;22.67;9.05;;;;;;;-5.69;76.80;97553.91;5034587;28;20099;-64
2022/03/04 06:52:23;;;;;;;21.25;11.23;;;;;;;-5.70;76.65;97560.19;5037125;28;20045;-64
2022/03/04 06:54:49;;;;;;;22.27;12.27;;;;;;;-5.72;76.96;97565.59;5037422;28;20037;-63
2022/03/04 06:57:16;;;;;;;19.67;11.48;;;;;;;-5.69;77.14;97565.31;5042902;28;20804;-65
2022/03/04 06:59:43;;;;;;;17.40;9.30;;;;;;;-5.68;77.34;97564.34;5033636;28;20053;-64
2022/03/04 07:02:10;;;;;;;19.85;9.80;;;;;;;-5.52;77.28;97563.75;5034316;28;20053;-64
2022/03/04 07:04:37;;;;;;;16.85;8.65;;;;;;;-5.36;76.36;97563.13;5033087;28;20052;-64
2022/03/04 07:07:03;;;;;;;31.35;11.02;;;;;;;-5.23;76.36;97565.41;5029860;28;20049;-63
2022/03/04 07:09:30;;;;;;;16.67;9.65;;;;;;;-5.07;76.04;97569.22;5031178;28;20043;-62
2022/03/04 07:11:56;;;;;;;20.52;10.57;;;;;;;-5.00;75.75;97570.31;5042359;28;20186;-64
2022/03/04 07:14:24;;;;;;;20.58;10.52;;;;;;;-4.83;75.35;97570.50;5041759;28;20044;-64
2022/03/04 07:16:51;;;;;;;15.32;8.23;;;;;;;-4.93;75.31;97585.56;5042028;28;20171;-66
2022/03/04 07:19:17;;;;;;;20.02;10.93;;;;;;;-4.84;75.67;97580.22;5034571;28;20496;-63
2022/03/04 07:21:44;;;;;;;18.77;10.00;;;;;;;-4.81;76.39;97579.09;5037735;28;20037;-64
2022/03/04 07:24:10;;;;;;;26.48;10.13;;;;;;;-4.85;76.62;97586.50;5034946;28;20508;-60
2022/03/04 07:26:37;;;;;;;22.40;11.20;;;;;;;-4.61;75.75;97586.91;5037354;28;20589;-61
2022/03/04 07:29:04;;;;;;;21.92;10.38;;;;;;;-4.58;75.91;97595.34;5033877;28;20067;-61
2022/03/04 07:31:30;;;;;;;20.10;10.48;;;;;;;-4.50;75.20;97593.78;5043385;28;20041;-61
2022/03/04 07:33:57;;;;;;;21.35;9.82;;;;;;;-4.42;76.19;97599.16;5037700;28;20049;-59
2022/03/04 07:36:24;;;;;;;23.98;10.95;;;;;;;-4.31;75.52;97606.84;5022849;28;20475;-62
2022/03/04 07:38:51;;;;;;;25.65;11.82;;;;;;;-4.09;74.99;97610.00;5052922;28;20049;-60
2022/03/04 07:41:17;;;;;;;19.08;10.45;;;;;;;-4.00;74.86;97604.78;5035701;28;20049;-59
2022/03/04 07:43:44;;;;;;;19.92;10.13;;;;;;;-3.79;74.91;97607.09;5038477;28;20045;-61
2022/03/04 07:46:12;;;;;;;17.88;9.43;;;;;;;-3.71;75.17;97598.38;5039969;28;20057;-62
2022/03/04 07:48:39;;;;;;;21.52;10.70;;;;;;;-3.61;75.26;97599.09;5035836;28;20065;-67
2022/03/04 07:51:06;;;;;;;22.95;11.57;;;;;;;-3.47;75.24;97596.88;5037860;28;20056;-67
2022/03/04 07:53:32;;;;;;;21.50;11.07;;;;;;;-3.24;74.60;97601.63;5030740;28;20052;-66
2022/03/04 07:55:59;;;;;;;23.17;10.43;;;;;;;-2.98;73.15;97600.75;5036883;28;20070;-64
2022/03/04 07:58:25;;;;;;;17.90;10.25;;;;;;;-2.70;72.04;97600.53;5041442;28;20604;-65
2022/03/04 08:00:52;;;;;;;21.88;12.80;;;;;;;-2.34;69.89;97610.88;5047739;28;20044;-66
2022/03/04 08:03:39;;;;;;;27.65;12.63;;;;;;;-1.93;67.81;97602.09;5042417;28;20040;-66
2022/03/04 08:06:05;;;;;;;25.13;11.93;;;;;;;-1.69;66.97;97603.09;5035148;28;20052;-65
2022/03/04 08:08:32;;;;;;;21.65;9.75;;;;;;;-1.55;65.43;97598.91;5046364;28;20044;-67
2022/03/04 08:10:59;;;;;;;22.73;11.95;;;;;;;-1.40;64.33;97596.38;5030133;28;20099;-65
2022/03/04 08:13:26;;;;;;;21.23;10.93;;;;;;;-1.25;63.89;97599.16;5026959;28;20037;-68
2022/03/04 08:15:54;;;;;;;25.80;10.90;;;;;;;-1.15;63.79;97604.28;5032402;28;20055;-67
2022/03/04 08:18:21;;;;;;;22.15;11.43;;;;;;;-1.06;62.47;97589.16;5044132;28;20056;-65
2022/03/04 08:20:48;;;;;;;23.98;10.15;;;;;;;-0.96;61.75;97595.09;5048530;28;20671;-64
2022/03/04 08:23:14;;;;;;;22.73;11.75;;;;;;;-0.82;61.92;97596.19;5045376;28;20044;-66
2022/03/04 08:25:41;;;;;;;19.83;10.13;;;;;;;-0.78;61.58;97596.66;5045677;28;20050;-68
2022/03/04 08:28:08;;;;;;;16.80;10.43;;;;;;;-0.69;61.70;97586.84;5050319;28;20037;-64
2022/03/04 08:30:34;;;;;;;23.10;11.82;;;;;;;-0.58;60.71;97588.28;5039034;28;20071;-66
2022/03/04 08:33:01;;;;;;;18.75;10.52;;;;;;;-0.48;59.80;97588.06;5039920;28;20542;-68
2022/03/04 08:35:28;;;;;;;27.08;11.88;;;;;;;-0.38;59.07;97587.84;5037023;28;20033;-66
2022/03/04 08:37:55;;;;;;;22.75;10.27;;;;;;;-0.29;58.16;97590.25;5039923;28;20110;-65
2022/03/04 08:40:22;;;;;;;21.23;10.30;;;;;;;-0.27;58.80;97587.41;5041304;28;20057;-67
2022/03/04 08:42:49;;;;;;;20.70;9.85;;;;;;;-0.19;57.93;97594.53;5043154;28;20051;-65
2022/03/04 08:45:16;;;;;;;19.38;9.80;;;;;;;-0.07;57.92;97595.75;5038312;28;20037;-65
2022/03/04 08:47:44;;;;;;;21.67;10.68;;;;;;;-0.03;57.45;97598.88;5038829;28;20099;-67
2022/03/04 08:50:13;;;;;;;17.70;9.85;;;;;;;0.03;57.41;97600.81;5037536;28;20053;-65
2022/03/04 08:52:40;;;;;;;20.65;10.10;;;;;;;0.02;56.84;97601.00;5039671;28;20055;-66
2022/03/04 08:55:13;;;;;;;18.75;10.23;;;;;;;0.14;56.67;97596.09;5038047;28;20041;-68
2022/03/04 08:57:42;;;;;;;23.50;12.07;;;;;;;0.29;56.73;97609.47;5041557;28;20045;-65
2022/03/04 09:00:09;;;;;;;21.83;10.63;;;;;;;0.33;55.94;97613.41;5037640;28;20048;-66
2022/03/04 09:02:36;;;;;;;23.58;11.70;;;;;;;0.36;55.91;97615.69;5037395;28;20068;-66
2022/03/04 09:05:05;;;;;;;23.23;10.88;;;;;;;0.35;56.09;97612.22;5035450;28;20137;-67
2022/03/04 09:07:33;;;;;;;18.05;10.02;;;;;;;0.40;56.46;97614.34;5030847;28;20131;-65
2022/03/04 09:10:03;;;;;;;20.77;11.02;;;;;;;0.49;55.62;97621.25;5048888;28;20052;-65
2022/03/04 09:12:31;;;;;;;23.98;11.60;;;;;;;0.60;55.93;97612.00;5043519;28;20049;-65
2022/03/04 09:14:57;;;;;;;22.85;11.93;;;;;;;0.63;55.34;97613.47;5034853;28;20505;-67
2022/03/04 09:17:24;;;;;;;27.90;10.93;;;;;;;0.61;55.44;97613.66;5039221;28;20056;-68
2022/03/04 09:19:50;;;;;;;28.67;12.52;;;;;;;0.66;55.97;97621.06;5033921;28;20045;-67
2022/03/04 09:22:23;;;;;;;22.75;11.07;;;;;;;0.76;55.47;97620.81;5043575;28;20049;-67
2022/03/04 09:24:50;;;;;;;23.50;11.70;;;;;;;0.81;54.85;97612.28;5044030;28;20041;-65
2022/03/04 09:27:17;;;;;;;19.83;11.00;;;;;;;0.88;54.74;97603.38;5037485;28;20057;-68
2022/03/04 09:29:45;;;;;;;19.67;10.88;;;;;;;0.99;54.41;97610.06;5039072;28;20534;-66
2022/03/04 09:32:12;;;;;;;23.40;12.40;;;;;;;1.02;54.48;97608.88;5047292;28;20044;-65
2022/03/04 09:34:39;;;;;;;20.63;9.98;;;;;;;1.08;55.04;97615.31;5058580;28;20109;-65
2022/03/04 09:37:07;;;;;;;22.70;11.02;;;;;;;1.06;54.25;97620.81;5034231;28;20061;-65
2022/03/04 09:39:34;;;;;;;24.50;11.25;;;;;;;1.14;53.70;97620.72;5038072;28;20037;-67
2022/03/04 09:42:00;;;;;;;21.13;12.02;;;;;;;1.23;52.92;97613.47;5031854;28;20056;-66
2022/03/04 09:44:27;;;;;;;25.98;11.38;;;;;;;1.30;52.94;97610.88;5033360;28;20057;-65
2022/03/04 09:46:56;;;;;;;25.70;12.50;;;;;;;1.27;52.62;97617.41;5032806;28;20041;-67
2022/03/04 09:49:30;;;;;;;22.23;10.90;;;;;;;1.37;52.52;97621.63;5038074;28;20134;-65
2022/03/04 09:51:57;;;;;;;21.13;11.32;;;;;;;1.40;52.06;97619.41;5040452;28;20056;-64
2022/03/04 09:54:28;;;;;;;22.08;13.52;;;;;;;1.48;52.52;97618.50;5045491;28;20040;-68
2022/03/04 09:56:56;;;;;;;26.23;12.98;;;;;;;1.59;51.51;97614.50;5038926;28;20478;-65
2022/03/04 09:59:24;;;;;;;22.98;10.63;;;;;;;1.72;51.85;97616.50;5042073;28;20075;-65
2022/03/04 10:01:51;;;;;;;21.23;11.57;;;;;;;1.81;51.51;97617.22;5046907;28;20114;-64
2022/03/04 10:04:18;;;;;;;24.80;12.90;;;;;;;1.76;52.06;97614.25;5041851;28;20052;-66
2022/03/04 10:06:50;;;;;;;22.27;12.82;;;;;;;1.85;52.61;97612.31;5052666;28;20040;-63
2022/03/04 10:09:49;;;;;;;25.23;12.43;;;;;;;1.99;52.13;97613.28;5038103;28;20033;-64
2022/03/04 10:12:17;;;;;;;18.10;10.07;;;;;;;1.99;52.41;97611.41;5037191;28;20805;-64
2022/03/04 10:15:00;;;;;;;23.60;12.38;;;;;;;2.18;52.98;97611.81;5041201;28;20255;-63
2022/03/04 10:17:32;;;;;;;20.65;12.38;;;;;;;2.32;52.25;97621.56;5030424;28;20037;-64
2022/03/04 10:20:05;;;;;;;25.27;12.57;;;;;;;2.31;51.95;97625.28;5026498;28;20049;-65
2022/03/04 10:22:36;;;;;;;26.65;12.63;;;;;;;2.34;51.75;97622.22;5038934;28;20058;-61
2022/03/04 10:25:16;;;;;;;;;;;;;;;2.31;51.30;97617.25;5037639;28;20045;-63
2022/03/04 10:27:43;;;;;;;26.23;12.50;;;;;;;2.37;50.17;97613.00;5043951;28;19920;-65
2022/03/04 10:30:10;;;;;;;26.02;13.52;;;;;;;2.53;49.79;97603.03;5044221;28;20153;-66
2022/03/04 10:32:37;;;;;;;24.27;12.38;;;;;;;2.57;49.99;97601.63;5042006;28;20620;-66
2022/03/04 10:35:09;;;;;;;23.15;11.93;;;;;;;2.67;50.97;97599.44;5039157;28;20141;-66
2022/03/04 10:37:55;;;;;;;23.23;11.88;;;;;;;2.66;49.75;97603.13;5037666;28;20029;-64
2022/03/04 10:40:31;;;;;;;26.38;12.15;;;;;;;2.82;46.50;97593.16;5028354;28;20037;-67
2022/03/04 10:43:04;;;;;;;22.17;12.32;;;;;;;2.94;45.70;97598.75;5040528;28;20044;-66
2022/03/04 10:45:46;;;;;;;21.15;11.27;;;;;;;2.96;44.50;97596.72;5024565;28;20046;-66
2022/03/04 10:48:20;;;;;;;22.73;12.30;;;;;;;2.97;44.58;97599.22;5029929;28;20059;-66
2022/03/04 10:50:50;;;;;;;23.25;12.88;;;;;;;2.97;44.73;97598.38;5035447;28;20041;-67
2022/03/04 10:53:22;;;;;;;22.00;12.88;;;;;;;3.07;44.79;97603.38;5036401;28;20053;-67
2022/03/04 10:55:51;;;;;;;22.60;12.07;;;;;;;3.19;45.29;97608.97;5038885;28;20099;-68
2022/03/04 10:58:29;;;;;;;24.30;13.98;;;;;;;3.30;44.43;97596.88;5039782;28;20037;-68
2022/03/04 11:01:09;;;;;;;21.83;12.30;;;;;;;3.30;44.38;97602.22;5040650;28;20491;-64
2022/03/04 11:03:39;;;;;;;23.45;12.15;;;;;;;3.38;43.70;97599.38;5025534;28;20164;-65
2022/03/04 11:06:16;;;;;;;25.58;12.65;;;;;;;3.34;44.24;97604.31;5030534;28;20044;-67
2022/03/04 11:08:43;;;;;;;25.20;14.48;;;;;;;3.47;44.27;97589.34;5042474;28;20114;-67
2022/03/04 11:11:10;;;;;;;26.13;13.63;;;;;;;3.56;44.49;97588.13;5028816;28;20041;-67
2022/03/04 11:13:37;;;;;;;23.05;12.60;;;;;;;3.55;43.35;97594.53;5036815;28;20056;-66
2022/03/04 11:16:06;;;;;;;21.92;13.43;;;;;;;3.54;42.96;97592.03;5046496;28;20041;-63
2022/03/04 11:18:33;;;;;;;23.70;13.15;;;;;;;3.60;43.22;97589.38;5035216;28;20530;-66
2022/03/04 11:21:01;;;;;;;25.38;14.25;;;;;;;3.70;42.64;97586.31;5049990;28;20049;-67
2022/03/04 11:23:35;;;;;;;21.50;12.27;;;;;;;3.66;42.42;97587.75;5031432;28;20064;-63
2022/03/04 11:26:05;;;;;;;22.45;12.07;;;;;;;3.72;42.07;97589.63;5036671;28;20049;-67